Time;durP1;ratioP1;P1;durP2;ratioP2;P2;SDS_P1;SDS_P2;PMS_P1;PMS_P2;Temp;Humidity;BMP_temperature;BMP_pressure;BME280_temperature;BME280_humidity;BME280_pressure;Samples;Min_cycle;Max_cycle;Signal;HPM_P1;HPM_P2
2021/12/10 00:00:26;;;;;;;18.80;13.93;;;3.80;99.90;;;;;;5034947;28;20196;-51
2021/12/10 00:02:52;;;;;;;15.83;12.30;;;3.80;99.90;;;;;;5034901;28;20172;-51
2021/12/10 00:05:25;;;;;;;22.73;16.97;;;3.90;99.90;;;;;;5034952;28;20175;-49
2021/12/10 00:07:52;;;;;;;19.67;15.17;;;3.90;99.90;;;;;;5035492;28;20172;-51
2021/12/10 00:10:24;;;;;;;18.30;13.00;;;3.80;99.90;;;;;;5033524;28;20401;-49
2021/12/10 00:12:51;;;;;;;18.73;14.63;;;3.80;99.90;;;;;;5035648;28;20225;-49
2021/12/10 00:15:21;;;;;;;15.03;12.87;;;3.80;99.90;;;;;;5035096;28;20766;-50
2021/12/10 00:17:48;;;;;;;14.77;12.30;;;3.70;99.90;;;;;;5034822;28;20201;-53
2021/12/10 00:20:15;;;;;;;14.93;12.63;;;3.60;99.90;;;;;;5034693;28;20175;-44
2021/12/10 00:22:51;;;;;;;17.90;14.93;;;3.70;99.90;;;;;;5034430;28;20175;-48
2021/12/10 00:25:20;;;;;;;15.93;13.33;;;3.70;99.90;;;;;;5032380;28;20640;-46
2021/12/10 00:27:53;;;;;;;15.67;12.83;;;5.50;99.90;;;;;;5016413;28;20182;-55
2021/12/10 00:30:27;;;;;;;21.80;14.77;;;4.10;99.90;;;;;;5000388;28;20192;-51
2021/12/10 00:33:20;;;;;;;19.27;14.40;;;3.80;99.90;;;;;;4985609;28;20171;-50
2021/12/10 00:35:46;;;;;;;19.53;15.17;;;3.70;99.90;;;;;;5032349;28;20184;-53
2021/12/10 00:38:12;;;;;;;18.13;14.70;;;3.60;99.90;;;;;;5034291;28;20250;-46
2021/12/10 00:40:38;;;;;;;17.50;14.03;;;3.60;99.90;;;;;;5034560;28;20187;-49
2021/12/10 00:43:05;;;;;;;20.97;16.00;;;3.50;99.90;;;;;;5034946;28;20191;-53
2021/12/10 00:45:30;;;;;;;21.07;15.23;;;3.50;99.90;;;;;;5033915;28;20180;-49
2021/12/10 00:47:57;;;;;;;18.07;14.73;;;3.50;99.90;;;;;;5034809;28;20202;-49
2021/12/10 00:50:27;;;;;;;20.97;16.03;;;3.40;99.90;;;;;;5033754;28;20229;-53
2021/12/10 00:52:53;;;;;;;17.73;14.37;;;3.30;99.90;;;;;;5034669;28;20168;-47
2021/12/10 00:55:20;;;;;;;17.97;14.60;;;3.30;99.90;;;;;;5033911;28;20330;-53
2021/12/10 00:57:47;;;;;;;18.70;14.87;;;3.40;99.90;;;;;;5032070;28;20660;-50
2021/12/10 01:00:22;;;;;;;19.33;14.27;;;3.50;99.90;;;;;;5033087;28;20657;-52
2021/12/10 01:02:48;;;;;;;21.40;16.23;;;3.50;99.90;;;;;;5033329;28;20159;-50
2021/12/10 01:05:15;;;;;;;20.13;16.23;;;3.60;99.90;;;;;;5033248;28;20180;-54
2021/12/10 01:07:42;;;;;;;19.07;14.13;;;3.60;99.90;;;;;;5033532;28;20184;-49
2021/12/10 01:10:32;;;;;;;18.77;14.83;;;3.60;99.90;;;;;;5033538;28;20176;-50
2021/12/10 01:13:01;;;;;;;19.43;15.63;;;3.70;99.90;;;;;;5033224;28;20214;-51
2021/12/10 01:23:47;;;;;;;19.27;15.17;;;3.60;99.90;;;;;;5033701;28;20211;-50
2021/12/10 01:24:17;;;;;;;19.50;15.57;;;3.60;99.90;;;;;;5033726;28;20253;-48
2021/12/10 01:29:14;;;;;;;20.27;15.90;;;3.50;99.90;;;;;;5032977;28;20184;-51
2021/12/10 01:31:40;;;;;;;21.40;16.33;;;3.50;99.90;;;;;;5033401;28;20196;-53
2021/12/10 01:34:07;;;;;;;21.53;16.10;;;3.60;99.90;;;;;;5032624;28;20195;-54
2021/12/10 01:36:34;;;;;;;23.07;17.03;;;3.60;99.90;;;;;;5033009;28;20645;-52
2021/12/10 01:38:59;;;;;;;21.47;16.63;;;3.70;99.90;;;;;;5033301;28;20250;-49
2021/12/10 01:41:33;;;;;;;23.77;17.87;;;3.70;99.90;;;;;;5033187;28;20215;-48
2021/12/10 01:44:03;;;;;;;25.53;18.50;;;3.70;99.90;;;;;;5032919;28;20176;-51
2021/12/10 01:46:31;;;;;;;19.03;15.87;;;3.70;99.90;;;;;;5032847;28;20568;-51
2021/12/10 01:49:01;;;;;;;18.27;14.70;;;3.70;99.90;;;;;;5032542;28;20195;-52
2021/12/10 01:51:31;;;;;;;17.90;15.03;;;3.80;99.90;;;;;;5033100;28;20206;-50
2021/12/10 01:54:05;;;;;;;17.00;14.17;;;3.80;99.90;;;;;;5033061;28;20286;-49
2021/12/10 01:56:34;;;;;;;19.90;15.23;;;3.80;99.90;;;;;;5033721;28;20168;-54
2021/12/10 01:59:02;;;;;;;18.97;15.30;;;3.80;99.90;;;;;;5033049;28;20230;-51
2021/12/10 02:01:32;;;;;;;18.40;15.07;;;3.80;99.90;;;;;;5032816;28;20194;-53
2021/12/10 02:04:01;;;;;;;17.40;14.50;;;3.70;99.90;;;;;;5033268;28;20175;-50
2021/12/10 02:06:27;;;;;;;18.27;14.07;;;3.70;99.90;;;;;;5032260;28;20225;-54
2021/12/10 02:08:53;;;;;;;18.23;15.00;;;3.70;99.90;;;;;;5032800;28;20254;-51
2021/12/10 02:11:19;;;;;;;19.90;15.63;;;3.50;99.90;;;;;;5032385;28;20667;-52
2021/12/10 02:13:46;;;;;;;17.73;14.03;;;3.60;99.90;;;;;;5033092;28;20273;-54
2021/12/10 02:16:12;;;;;;;17.70;13.97;;;3.60;99.90;;;;;;5032355;28;20251;-51
2021/12/10 02:18:38;;;;;;;19.47;15.30;;;3.70;99.90;;;;;;5031833;28;20199;-54
2021/12/10 02:21:07;;;;;;;15.23;13.33;;;3.60;99.90;;;;;;5032443;28;20188;-52
2021/12/10 02:23:37;;;;;;;16.73;13.70;;;3.60;99.90;;;;;;5032978;28;20174;-53
2021/12/10 02:26:06;;;;;;;14.27;11.60;;;3.70;99.90;;;;;;5032174;28;20163;-52
2021/12/10 02:28:32;;;;;;;17.43;14.70;;;3.70;99.90;;;;;;5032500;28;20167;-54
2021/12/10 02:30:59;;;;;;;14.60;11.93;;;3.60;99.90;;;;;;5032193;28;20192;-54
2021/12/10 02:33:25;;;;;;;15.70;13.00;;;3.50;99.90;;;;;;5031916;28;20254;-50
2021/12/10 02:35:51;;;;;;;19.47;14.30;;;3.50;99.90;;;;;;5031977;28;20633;-52
2021/12/10 02:38:18;;;;;;;14.70;11.67;;;3.40;99.90;;;;;;5031740;28;20175;-53
2021/12/10 02:40:46;;;;;;;14.70;11.97;;;3.40;99.90;;;;;;5032194;28;20234;-51
2021/12/10 02:43:14;;;;;;;14.33;11.23;;;3.50;99.90;;;;;;5032143;28;20225;-46
2021/12/10 02:45:42;;;;;;;16.30;12.37;;;3.60;99.90;;;;;;5028774;28;20246;-49
2021/12/10 02:48:08;;;;;;;13.57;11.43;;;3.60;99.90;;;;;;5023399;28;20656;-50
2021/12/10 02:50:35;;;;;;;14.43;12.50;;;3.60;99.90;;;;;;5032013;28;20199;-52
2021/12/10 02:53:02;;;;;;;14.27;12.10;;;3.60;99.90;;;;;;5026276;28;20637;-51
2021/12/10 02:55:29;;;;;;;14.23;11.80;;;3.70;99.90;;;;;;5032206;28;20627;-50
2021/12/10 02:57:58;;;;;;;15.10;11.87;;;3.80;99.90;;;;;;5032309;28;20176;-49
2021/12/10 03:00:32;;;;;;;13.27;11.37;;;3.90;99.90;;;;;;5032676;28;20164;-51
2021/12/10 03:02:58;;;;;;;13.37;11.27;;;3.80;99.90;;;;;;5024975;28;20163;-49
2021/12/10 03:05:25;;;;;;;13.80;11.27;;;3.70;99.90;;;;;;5032416;28;20706;-47
2021/12/10 03:07:51;;;;;;;12.67;10.60;;;3.70;99.90;;;;;;5032264;28;20222;-49
2021/12/10 03:10:22;;;;;;;12.17;9.90;;;3.80;99.90;;;;;;5031405;28;20167;-48
2021/12/10 03:12:47;;;;;;;13.57;10.57;;;3.80;99.90;;;;;;5031919;28;20199;-48
2021/12/10 03:15:16;;;;;;;12.60;9.90;;;3.90;99.90;;;;;;5031355;28;20195;-48
2021/12/10 03:17:42;;;;;;;11.43;10.00;;;3.90;99.90;;;;;;5031791;28;20211;-47
2021/12/10 03:20:11;;;;;;;11.77;10.03;;;4.00;99.90;;;;;;5031398;28;20179;-52
2021/12/10 03:22:38;;;;;;;12.17;10.07;;;4.00;99.90;;;;;;5031590;28;20540;-52
2021/12/10 03:25:10;;;;;;;11.37;9.10;;;3.90;99.90;;;;;;5032030;28;20175;-49
2021/12/10 03:27:36;;;;;;;11.47;9.37;;;3.90;99.90;;;;;;5031594;28;20310;-47
2021/12/10 03:30:05;;;;;;;13.57;10.33;;;3.90;99.90;;;;;;5031914;28;20175;-52
2021/12/10 03:32:32;;;;;;;14.17;10.70;;;3.80;99.90;;;;;;5031753;28;20195;-51
2021/12/10 03:35:00;;;;;;;11.97;10.10;;;3.80;99.90;;;;;;5031024;28;20227;-51
2021/12/10 03:37:27;;;;;;;11.40;10.20;;;3.80;99.90;;;;;;5031237;28;20179;-53
2021/12/10 03:39:53;;;;;;;10.97;9.33;;;3.90;99.90;;;;;;5031660;28;20168;-50
2021/12/10 03:42:21;;;;;;;11.50;9.30;;;4.00;99.90;;;;;;5031410;28;20230;-51
2021/12/10 03:44:46;;;;;;;10.90;9.60;;;4.00;99.90;;;;;;5031552;28;20789;-47
2021/12/10 03:47:13;;;;;;;12.30;10.60;;;4.10;99.90;;;;;;5031409;28;20255;-52
2021/12/10 03:49:39;;;;;;;11.77;10.33;;;4.20;99.90;;;;;;5031563;28;20379;-48
2021/12/10 03:52:07;;;;;;;12.43;9.97;;;4.30;99.90;;;;;;5031400;28;20191;-47
2021/12/10 03:54:37;;;;;;;11.10;9.47;;;4.30;99.90;;;;;;5030476;28;20258;-49
2021/12/10 03:57:05;;;;;;;11.83;10.00;;;4.30;99.90;;;;;;5030735;28;20199;-48
2021/12/10 03:59:31;;;;;;;12.23;9.67;;;4.30;99.90;;;;;;5031275;28;20247;-49
2021/12/10 04:01:58;;;;;;;14.40;10.40;;;4.30;99.90;;;;;;5031510;28;20241;-48
2021/12/10 04:04:31;;;;;;;10.87;9.40;;;4.30;99.90;;;;;;5031101;28;20176;-47
2021/12/10 04:06:58;;;;;;;10.80;8.40;;;4.30;99.90;;;;;;5031505;28;20588;-48
2021/12/10 04:09:24;;;;;;;10.87;8.27;;;6.50;99.90;;;;;;5016185;28;20194;-50
2021/12/10 04:11:51;;;;;;;10.93;8.20;;;4.20;99.90;;;;;;5035060;28;20210;-47
2021/12/10 04:14:17;;;;;;;10.10;7.93;;;4.20;99.90;;;;;;5034777;28;20224;-53
2021/12/10 04:16:43;;;;;;;9.20;8.20;;;4.20;99.90;;;;;;5033694;28;20188;-48
2021/12/10 04:19:11;;;;;;;7.83;6.97;;;4.30;99.90;;;;;;5034118;28;20178;-50
2021/12/10 04:21:40;;;;;;;9.13;8.10;;;4.30;99.90;;;;;;5034461;28;20360;-48
2021/12/10 04:24:10;;;;;;;9.40;8.00;;;4.30;99.90;;;;;;5034913;28;20334;-51
2021/12/10 04:26:36;;;;;;;10.07;7.40;;;4.30;99.90;;;;;;5033127;28;20661;-53
2021/12/10 04:29:03;;;;;;;9.83;7.50;;;4.30;99.90;;;;;;5034466;28;20229;-51
2021/12/10 04:31:28;;;;;;;9.33;7.87;;;4.30;99.90;;;;;;5033933;28;20196;-47
2021/12/10 04:33:54;;;;;;;10.10;7.80;;;4.30;99.90;;;;;;5034417;28;20657;-52
2021/12/10 04:36:20;;;;;;;9.10;7.50;;;4.40;99.90;;;;;;5033834;28;20171;-52
2021/12/10 04:38:46;;;;;;;9.97;7.77;;;4.50;99.90;;;;;;5034328;28;20188;-48
2021/12/10 04:41:12;;;;;;;9.20;7.70;;;4.50;99.90;;;;;;5034199;28;20238;-51
2021/12/10 04:43:40;;;;;;;8.50;7.60;;;4.50;99.90;;;;;;5033615;28;20184;-51
2021/12/10 04:46:06;;;;;;;10.97;8.30;;;4.60;99.90;;;;;;5033283;28;20652;-52
2021/12/10 04:48:53;;;;;;;9.63;7.67;;;4.60;99.90;;;;;;5033923;28;20206;-53
2021/12/10 04:51:24;;;;;;;7.20;6.17;;;4.70;99.90;;;;;;5034035;28;20215;-51
2021/12/10 04:53:51;;;;;;;7.50;6.70;;;4.70;99.90;;;;;;5015754;28;20604;-52
2021/12/10 04:56:17;;;;;;;10.37;7.30;;;4.70;99.90;;;;;;5033875;28;20172;-48
2021/12/10 04:58:43;;;;;;;9.30;7.67;;;4.70;99.90;;;;;;5033770;28;20172;-51
2021/12/10 05:01:09;;;;;;;9.13;7.23;;;4.70;99.90;;;;;;5033952;28;20675;-54
2021/12/10 05:03:35;;;;;;;9.20;8.20;;;4.70;99.90;;;;;;5033872;28;20247;-50
2021/12/10 05:06:03;;;;;;;11.03;8.20;;;4.70;99.90;;;;;;5033494;28;20715;-53
2021/12/10 05:08:34;;;;;;;9.83;8.17;;;4.70;99.90;;;;;;5033823;28;20164;-52
2021/12/10 05:13:35;;;;;;;8.07;6.73;;;4.70;99.90;;;;;;5053475;28;20241;-53
2021/12/10 05:16:01;;;;;;;9.50;7.23;;;5.70;99.90;;;;;;5053625;28;20182;-50
2021/12/10 05:18:35;;;;;;;11.80;7.93;;;4.70;99.90;;;;;;5054217;28;20629;-52
2021/12/10 05:21:02;;;;;;;8.70;7.23;;;4.70;99.90;;;;;;5052773;28;20182;-54
2021/12/10 05:23:27;;;;;;;7.93;6.50;;;6.00;99.90;;;;;;5055515;28;20194;-53
2021/12/10 05:25:53;;;;;;;10.07;7.63;;;4.80;99.90;;;;;;5054609;28;20187;-53
2021/12/10 05:28:19;;;;;;;8.23;7.33;;;4.70;99.90;;;;;;5054650;28;20187;-52
2021/12/10 05:30:46;;;;;;;9.80;7.87;;;4.70;99.90;;;;;;5056274;28;20556;-51
2021/12/10 05:33:17;;;;;;;8.97;7.50;;;4.70;99.90;;;;;;5054779;28;20175;-52
2021/12/10 05:35:44;;;;;;;10.43;8.47;;;4.70;99.90;;;;;;5054212;28;20710;-51
2021/12/10 05:38:10;;;;;;;9.13;7.23;;;4.60;99.90;;;;;;5055493;28;20320;-50
2021/12/10 05:40:35;;;;;;;7.97;6.80;;;4.50;99.90;;;;;;5055624;28;20209;-47
2021/12/10 05:43:01;;;;;;;8.47;6.60;;;4.40;99.90;;;;;;5056223;28;20205;-50
2021/12/10 05:45:27;;;;;;;8.17;6.90;;;4.40;99.90;;;;;;5056027;28;20179;-51
2021/12/10 05:47:52;;;;;;;9.43;6.83;;;4.40;99.90;;;;;;5056782;28;20183;-50
2021/12/10 05:50:22;;;;;;;8.70;6.63;;;4.50;99.90;;;;;;5057052;28;20189;-48
2021/12/10 05:52:48;;;;;;;8.40;6.70;;;6.50;99.90;;;;;;5055726;28;20193;-51
2021/12/10 05:55:15;;;;;;;9.13;6.70;;;4.50;99.90;;;;;;5051533;28;20767;-47
2021/12/10 05:57:41;;;;;;;8.43;6.47;;;4.60;99.90;;;;;;5055200;28;20632;-53
2021/12/10 06:00:11;;;;;;;9.03;6.37;;;4.60;99.90;;;;;;5053684;28;20171;-52
2021/12/10 06:02:37;;;;;;;8.33;6.07;;;4.50;99.90;;;;;;5055156;28;20245;-49
2021/12/10 06:05:03;;;;;;;8.50;6.70;;;4.50;99.90;;;;;;5046316;28;20231;-48
2021/12/10 06:07:29;;;;;;;8.57;6.57;;;4.50;99.90;;;;;;5054419;28;20187;-52
2021/12/10 06:09:54;;;;;;;8.70;7.00;;;4.40;99.90;;;;;;5054952;28;20183;-50
2021/12/10 06:12:20;;;;;;;9.73;6.73;;;4.30;99.90;;;;;;5053908;28;20219;-49
2021/12/10 06:14:46;;;;;;;9.17;7.20;;;4.20;99.90;;;;;;5053137;28;20641;-49
2021/12/10 06:17:11;;;;;;;9.33;6.67;;;4.10;99.90;;;;;;5053150;28;20178;-53
2021/12/10 06:19:37;;;;;;;9.93;7.10;;;4.10;99.90;;;;;;5053938;28;20179;-54
2021/12/10 06:22:03;;;;;;;8.57;7.50;;;4.10;99.90;;;;;;5053531;28;20699;-53
2021/12/10 06:24:30;;;;;;;9.57;6.80;;;4.10;99.90;;;;;;5053829;28;20739;-49
2021/12/10 06:26:55;;;;;;;9.47;7.43;;;4.10;99.90;;;;;;5053576;28;20305;-50
2021/12/10 06:29:25;;;;;;;10.27;8.23;;;4.00;99.90;;;;;;5053685;28;20274;-48
2021/12/10 06:31:52;;;;;;;9.27;7.13;;;4.00;99.90;;;;;;5053462;28;20191;-52
2021/12/10 06:34:19;;;;;;;9.23;6.90;;;3.90;99.90;;;;;;5054247;28;20207;-51
2021/12/10 06:36:44;;;;;;;9.10;6.20;;;3.80;99.90;;;;;;5053900;28;20177;-49
2021/12/10 06:39:10;;;;;;;9.10;6.90;;;3.90;99.90;;;;;;5054948;28;20183;-51
2021/12/10 06:41:36;;;;;;;8.87;7.03;;;3.80;99.90;;;;;;5054979;28;20190;-48
2021/12/10 06:44:04;;;;;;;11.07;7.73;;;3.80;99.90;;;;;;5057207;28;20193;-49
2021/12/10 06:46:34;;;;;;;9.53;7.87;;;3.80;99.90;;;;;;5056149;28;20178;-48
2021/12/10 06:49:00;;;;;;;8.50;7.00;;;3.80;99.90;;;;;;5054518;28;20213;-47
2021/12/10 06:51:26;;;;;;;10.10;8.10;;;5.00;99.90;;;;;;5054128;28;20202;-50
2021/12/10 06:53:52;;;;;;;9.50;7.63;;;3.70;99.90;;;;;;5055131;28;20197;-48
2021/12/10 06:56:19;;;;;;;8.83;7.47;;;3.70;99.90;;;;;;5055961;28;20168;-48
2021/12/10 06:58:45;;;;;;;8.87;7.30;;;4.40;99.90;;;;;;5056545;28;20535;-46
2021/12/10 07:01:17;;;;;;;10.43;7.00;;;3.40;99.90;;;;;;5056939;28;20209;-46
2021/12/10 07:03:45;;;;;;;8.63;7.40;;;3.30;99.90;;;;;;5053952;28;20178;-46
2021/12/10 07:06:10;;;;;;;9.67;7.90;;;3.20;99.90;;;;;;5054007;28;20167;-49
2021/12/10 07:08:39;;;;;;;11.67;7.63;;;3.10;99.90;;;;;;5056725;28;20168;-50
2021/12/10 07:11:06;;;;;;;10.03;7.67;;;3.00;99.90;;;;;;5055964;28;20564;-50
2021/12/10 07:13:34;;;;;;;9.20;7.33;;;4.50;99.90;;;;;;5056510;28;20179;-49
2021/12/10 07:16:00;;;;;;;10.23;8.13;;;3.10;99.90;;;;;;5055859;28;20413;-47
2021/12/10 07:18:26;;;;;;;10.07;8.07;;;3.20;99.90;;;;;;5052971;28;20285;-48
2021/12/10 07:20:52;;;;;;;9.70;7.77;;;3.20;99.90;;;;;;5054097;28;20223;-50
2021/12/10 07:23:19;;;;;;;9.67;7.50;;;3.20;99.90;;;;;;5053768;28;20608;-47
2021/12/10 07:25:45;;;;;;;9.43;6.97;;;3.20;99.90;;;;;;5054814;28;20179;-52
2021/12/10 07:28:11;;;;;;;9.03;7.03;;;3.10;99.90;;;;;;5054856;28;20171;-47
2021/12/10 07:30:37;;;;;;;7.77;6.33;;;3.10;99.90;;;;;;5054408;28;20248;-54
2021/12/10 07:33:04;;;;;;;8.37;6.63;;;3.20;99.90;;;;;;5052545;28;20181;-48
2021/12/10 07:35:29;;;;;;;9.57;6.80;;;3.10;99.90;;;;;;5053702;28;20742;-49
2021/12/10 07:37:55;;;;;;;6.83;6.13;;;3.10;99.90;;;;;;5053805;28;20209;-49
2021/12/10 07:40:24;;;;;;;9.20;7.00;;;3.00;99.90;;;;;;5053149;28;20248;-47
2021/12/10 07:42:50;;;;;;;8.60;6.47;;;3.00;99.90;;;;;;5054219;28;20195;-47
2021/12/10 07:45:16;;;;;;;7.63;6.27;;;3.00;99.90;;;;;;5057352;28;20175;-49
2021/12/10 07:47:43;;;;;;;8.27;6.63;;;3.70;99.90;;;;;;5057585;28;20316;-49
2021/12/10 07:50:16;;;;;;;6.83;5.83;;;3.10;99.90;;;;;;5057958;28;20207;-47
2021/12/10 07:52:44;;;;;;;8.17;6.53;;;3.10;99.90;;;;;;5059734;28;20187;-48
2021/12/10 07:55:13;;;;;;;9.37;6.93;;;3.00;99.90;;;;;;5058224;28;20190;-47
2021/12/10 07:57:39;;;;;;;7.60;6.30;;;3.00;99.90;;;;;;5059296;28;20168;-52
2021/12/10 08:00:09;;;;;;;7.30;6.13;;;3.30;99.90;;;;;;5058122;28;20174;-49
2021/12/10 08:02:35;;;;;;;7.47;5.97;;;3.60;99.90;;;;;;5058063;28;20672;-46
2021/12/10 08:05:00;;;;;;;7.03;5.20;;;4.20;99.90;;;;;;5057575;28;20175;-49
2021/12/10 08:07:26;;;;;;;5.63;5.03;;;5.10;99.90;;;;;;5056986;28;20182;-49
2021/12/10 08:09:52;;;;;;;6.00;4.50;;;6.30;99.90;;;;;;5055840;28;20175;-50
2021/12/10 08:12:17;;;;;;;5.30;4.43;;;10.30;99.90;;;;;;5055172;28;20207;-50
2021/12/10 08:14:45;;;;;;;5.17;4.40;;;10.30;99.90;;;;;;5055763;28;20206;-48
2021/12/10 08:17:11;;;;;;;5.47;4.10;;;13.90;99.90;;;;;;5057994;28;20167;-45
2021/12/10 08:19:37;;;;;;;5.07;4.23;;;14.00;99.90;;;;;;5059268;28;20231;-45
2021/12/10 08:22:03;;;;;;;4.47;3.93;;;15.00;97.50;;;;;;5058316;28;20198;-45
2021/12/10 08:24:28;;;;;;;4.23;3.50;;;15.20;95.90;;;;;;5058225;28;20179;-46
2021/12/10 08:26:54;;;;;;;5.10;4.10;;;14.90;94.90;;;;;;5057967;28;20181;-45
2021/12/10 08:29:21;;;;;;;4.57;3.77;;;14.50;94.70;;;;;;5057217;28;20175;-46
2021/12/10 08:31:47;;;;;;;5.17;3.97;;;13.80;95.40;;;;;;5058858;28;20262;-44
2021/12/10 08:34:13;;;;;;;4.73;4.10;;;12.70;96.40;;;;;;5058461;28;20202;-45
2021/12/10 08:36:39;;;;;;;5.67;4.50;;;12.20;97.10;;;;;;5058656;28;20732;-45
2021/12/10 08:39:07;;;;;;;5.53;4.20;;;10.70;98.00;;;;;;5056944;28;20171;-46
2021/12/10 08:41:34;;;;;;;4.57;4.13;;;10.60;98.90;;;;;;5054467;28;20190;-45
2021/12/10 08:44:01;;;;;;;4.77;4.10;;;10.80;98.90;;;;;;5055686;28;20209;-47
2021/12/10 08:46:28;;;;;;;5.43;4.60;;;10.80;98.60;;;;;;5054831;28;20178;-48
2021/12/10 08:48:57;;;;;;;5.30;4.47;;;11.40;98.90;;;;;;5054843;28;20254;-46
2021/12/10 08:51:29;;;;;;;4.83;4.33;;;11.20;98.80;;;;;;5057246;28;20221;-47
2021/12/10 08:53:54;;;;;;;4.97;3.93;;;10.70;99.40;;;;;;5056036;28;20159;-45
2021/12/10 08:56:21;;;;;;;4.73;3.97;;;12.30;98.60;;;;;;5053972;28;20666;-47
2021/12/10 08:58:47;;;;;;;5.17;4.00;;;15.00;97.70;;;;;;5055195;28;20171;-47
2021/12/10 09:01:21;;;;;;;4.70;4.03;;;16.60;94.40;;;;;;5054946;28;20207;-48
2021/12/10 09:03:50;;;;;;;5.83;4.77;;;18.90;91.40;;;;;;5054951;28;20274;-48
2021/12/10 09:06:17;;;;;;;6.47;5.00;;;21.00;86.50;;;;;;5053539;28;20176;-49
2021/12/10 09:08:43;;;;;;;3.88;3.47;;;23.00;80.00;;;;;;5053933;28;20171;-50
2021/12/10 09:11:11;;;;;;;4.05;3.40;;;24.80;72.10;;;;;;5053234;28;20671;-50
2021/12/10 09:13:38;;;;;;;4.55;3.72;;;26.30;66.50;;;;;;5035578;28;20262;-49
2021/12/10 09:16:11;;;;;;;4.32;3.70;;;27.50;60.00;;;;;;5053015;28;20262;-50
2021/12/10 09:18:39;;;;;;;3.47;3.15;;;28.60;56.30;;;;;;5052983;28;20250;-51
2021/12/10 09:21:08;;;;;;;3.42;3.10;;;29.60;53.80;;;;;;5053052;28;20183;-55
2021/12/10 09:23:34;;;;;;;3.08;2.78;;;30.70;51.20;;;;;;5053085;28;20217;-53
2021/12/10 09:26:03;;;;;;;4.20;2.95;;;31.50;48.50;;;;;;5052948;28;20172;-53
2021/12/10 09:28:29;;;;;;;3.30;2.80;;;32.40;46.30;;;;;;5052771;28;20762;-50
2021/12/10 09:30:57;;;;;;;3.78;2.85;;;33.00;44.20;;;;;;5053151;28;20270;-52
2021/12/10 09:33:23;;;;;;;3.72;2.92;;;33.60;42.80;;;;;;5052728;28;20168;-52
2021/12/10 09:35:49;;;;;;;3.20;2.92;;;34.10;41.50;;;;;;5052790;28;20253;-49
2021/12/10 09:38:16;;;;;;;3.38;2.47;;;34.60;39.70;;;;;;5052749;28;20174;-50
2021/12/10 09:40:47;;;;;;;3.15;2.72;;;35.10;39.20;;;;;;5052804;28;20209;-54
2021/12/10 09:43:13;;;;;;;2.88;2.45;;;35.40;37.80;;;;;;5052957;28;20226;-55
2021/12/10 09:45:42;;;;;;;3.13;2.70;;;35.70;36.90;;;;;;5052186;28;20671;-54
2021/12/10 09:48:09;;;;;;;3.58;2.60;;;36.00;36.50;;;;;;5052912;28;20171;-53
2021/12/10 09:50:40;;;;;;;2.90;2.70;;;36.20;35.20;;;;;;5052023;28;20262;-54
2021/12/10 09:53:07;;;;;;;3.97;3.30;;;36.50;35.20;;;;;;5052547;28;20178;-54
2021/12/10 09:55:33;;;;;;;2.75;2.35;;;36.80;33.90;;;;;;5052106;28;20182;-54
2021/12/10 09:57:59;;;;;;;3.25;2.75;;;37.10;32.90;;;;;;5052533;28;20179;-53
2021/12/10 10:00:27;;;;;;;2.55;2.35;;;37.20;32.80;;;;;;5051845;28;20167;-54
2021/12/10 10:02:53;;;;;;;2.40;2.00;;;37.20;31.30;;;;;;5052477;28;20202;-53
2021/12/10 10:05:25;;;;;;;2.97;2.67;;;37.10;32.20;;;;;;5052043;28;20186;-52
2021/12/10 10:07:52;;;;;;;3.40;2.60;;;37.00;30.90;;;;;;5052141;28;20155;-54
2021/12/10 10:10:18;;;;;;;3.25;2.20;;;36.80;31.80;;;;;;5052166;28;20647;-49
2021/12/10 10:12:50;;;;;;;2.60;2.40;;;37.00;31.70;;;;;;5048270;28;20243;-52
2021/12/10 10:15:20;;;;;;;3.63;2.30;;;37.50;31.20;;;;;;5050015;28;20324;-55
2021/12/10 10:17:46;;;;;;;3.00;2.42;;;37.90;31.20;;;;;;5050385;28;20672;-52
2021/12/10 10:20:14;;;;;;;3.85;2.67;;;38.40;30.40;;;;;;5051573;28;20301;-51
2021/12/10 10:22:41;;;;;;;2.50;2.30;;;38.50;30.00;;;;;;5050417;28;20194;-54
2021/12/10 10:25:08;;;;;;;3.78;2.42;;;38.60;30.10;;;;;;5002039;28;20197;-53
2021/12/10 10:27:38;;;;;;;3.55;2.90;;;38.60;29.50;;;;;;5051429;28;20174;-53
2021/12/10 10:30:10;;;;;;;2.78;2.58;;;38.50;29.10;;;;;;5051039;28;20677;-53
2021/12/10 10:32:38;;;;;;;3.17;2.58;;;38.40;28.70;;;;;;5051257;28;20186;-53
2021/12/10 10:35:13;;;;;;;2.90;2.42;;;38.00;29.00;;;;;;5048112;28;20543;-55
2021/12/10 10:37:40;;;;;;;2.75;2.30;;;37.90;29.20;;;;;;5051113;28;20282;-50
2021/12/10 10:40:11;;;;;;;3.45;2.75;;;37.90;29.20;;;;;;5033638;28;20257;-55
2021/12/10 10:42:37;;;;;;;3.42;2.53;;;37.90;28.90;;;;;;5051349;28;20544;-51
2021/12/10 10:45:10;;;;;;;5.03;2.70;;;37.70;28.60;;;;;;5050965;28;20248;-52
2021/12/10 10:47:35;;;;;;;2.95;2.63;;;37.20;29.00;;;;;;5051555;28;20170;-55
2021/12/10 10:50:11;;;;;;;3.47;2.95;;;37.20;29.10;;;;;;5051091;28;20163;-49
2021/12/10 10:52:39;;;;;;;3.10;2.60;;;37.10;29.00;;;;;;5048776;28;20198;-53
2021/12/10 10:55:11;;;;;;;3.13;2.70;;;37.20;29.10;;;;;;5051020;28;20233;-51
2021/12/10 10:57:40;;;;;;;3.67;2.97;;;37.50;28.90;;;;;;5051495;28;20246;-54
2021/12/10 11:00:29;;;;;;;3.10;2.60;;;37.90;28.70;;;;;;5050840;28;20297;-54
2021/12/10 11:03:00;;;;;;;3.35;2.40;;;38.10;28.30;;;;;;5050888;28;20190;-54
2021/12/10 11:05:26;;;;;;;2.83;2.60;;;38.10;28.80;;;;;;5042871;28;20692;-54
2021/12/10 11:07:58;;;;;;;3.67;2.90;;;38.30;28.20;;;;;;5050617;28;20544;-54
2021/12/10 11:10:28;;;;;;;3.13;2.83;;;38.10;28.60;;;;;;5051870;28;20171;-56
2021/12/10 11:13:06;;;;;;;4.63;3.05;;;38.10;28.40;;;;;;5051100;28;20206;-55
2021/12/10 11:15:32;;;;;;;3.92;3.45;;;38.30;28.40;;;;;;5051099;28;20185;-51
2021/12/10 11:17:57;;;;;;;6.45;3.55;;;38.40;27.90;;;;;;5051188;28;20174;-54
2021/12/10 11:20:30;;;;;;;4.80;2.90;;;38.50;28.00;;;;;;5055282;28;20260;-50
2021/12/10 11:23:00;;;;;;;5.70;3.47;;;38.40;28.00;;;;;;5055431;28;20273;-55
2021/12/10 11:25:40;;;;;;;3.28;2.90;;;38.20;27.60;;;;;;5036876;28;20305;-50
2021/12/10 11:28:13;;;;;;;3.03;2.55;;;37.10;27.60;;;;;;5055085;28;20166;-49
2021/12/10 11:30:48;;;;;;;3.40;2.58;;;36.60;28.40;;;;;;5037477;28;20871;-53
2021/12/10 11:33:20;;;;;;;4.25;3.10;;;35.80;28.80;;;;;;5055869;28;20221;-51
2021/12/10 11:35:56;;;;;;;6.13;3.22;;;35.70;28.70;;;;;;5055284;28;20166;-47
2021/12/10 11:38:33;;;;;;;3.08;2.58;;;35.20;28.10;;;;;;5055799;28;20813;-52
2021/12/10 11:41:10;;;;;;;3.17;2.67;;;34.10;29.10;;;;;;5037558;28;20202;-50
2021/12/10 11:43:52;;;;;;;3.30;2.83;;;33.20;29.50;;;;;;5055614;28;20251;-51
2021/12/10 11:46:32;;;;;;;4.15;2.60;;;32.50;30.00;;;;;;5055002;28;20202;-51
2021/12/10 11:49:14;;;;;;;3.35;2.33;;;31.20;30.50;;;;;;5055488;28;20163;-50
2021/12/10 11:51:45;;;;;;;2.50;2.30;;;30.70;31.20;;;;;;5055023;28;20187;-53
2021/12/10 11:54:19;;;;;;;4.25;2.60;;;30.30;32.40;;;;;;5054952;28;20163;-51
2021/12/10 11:56:55;;;;;;;3.00;2.25;;;29.80;31.10;;;;;;5054753;28;20258;-54
2021/12/10 11:59:30;;;;;;;2.75;2.10;;;29.00;32.70;;;;;;5054604;28;20187;-53
2021/12/10 12:02:16;;;;;;;4.45;3.03;;;28.50;32.90;;;;;;5054959;28;20225;-51
2021/12/10 12:04:48;;;;;;;2.58;2.10;;;28.40;33.10;;;;;;5054243;28;20203;-52
2021/12/10 12:07:40;;;;;;;4.40;2.80;;;28.50;33.20;;;;;;5054704;28;20214;-53
2021/12/10 12:10:23;;;;;;;3.45;2.42;;;28.20;34.10;;;;;;5053864;28;20237;-49
2021/12/10 12:13:02;;;;;;;3.55;2.20;;;27.80;33.80;;;;;;5054296;28;20630;-52
2021/12/10 12:15:51;;;;;;;3.15;1.92;;;27.60;34.00;;;;;;5053725;28;20644;-48
2021/12/10 12:18:29;;;;;;;3.50;1.90;;;27.10;33.70;;;;;;5053993;28;20191;-50
2021/12/10 12:26:37;;;;;;;3.25;2.70;;;24.60;36.90;;;;;;5055283;28;20584;-54
2021/12/10 12:29:07;;;;;;;3.72;2.22;;;23.60;37.90;;;;;;5054159;28;20203;-49
2021/12/10 12:31:39;;;;;;;4.30;2.42;;;23.20;38.00;;;;;;5052753;28;20257;-52
2021/12/10 12:34:21;;;;;;;2.85;1.98;;;23.00;38.80;;;;;;5053786;28;20199;-52
2021/12/10 12:37:02;;;;;;;3.95;2.60;;;23.20;38.40;;;;;;5053868;28;20180;-52
2021/12/10 12:39:36;;;;;;;4.80;3.33;;;23.50;38.10;;;;;;5053930;28;20505;-49
2021/12/10 12:42:25;;;;;;;3.72;2.88;;;23.10;38.30;;;;;;5053826;28;20631;-49
2021/12/10 12:45:23;;;;;;;4.72;2.42;;;22.80;38.80;;;;;;5035079;28;20211;-51
2021/12/10 12:47:53;;;;;;;4.60;2.67;;;22.30;38.80;;;;;;5053837;28;20163;-51
2021/12/10 12:50:31;;;;;;;2.85;2.10;;;22.00;39.70;;;;;;5053283;28;20193;-51
2021/12/10 12:53:19;;;;;;;2.85;2.10;;;21.60;39.40;;;;;;5053737;28;20757;-48
2021/12/10 12:55:53;;;;;;;2.85;2.00;;;21.50;40.30;;;;;;5039815;28;20566;-52
2021/12/10 12:58:24;;;;;;;3.45;2.03;;;21.40;39.90;;;;;;5053712;28;20154;-48
2021/12/10 13:00:59;;;;;;;2.13;1.80;;;20.70;40.90;;;;;;5053126;28;20175;-52
2021/12/10 13:03:30;;;;;;;2.40;2.20;;;20.70;41.00;;;;;;5053565;28;20233;-54
2021/12/10 13:06:11;;;;;;;3.13;2.60;;;20.80;41.00;;;;;;5051975;28;20191;-51
2021/12/10 13:08:40;;;;;;;4.07;2.60;;;21.10;41.40;;;;;;5049670;28;20262;-52
2021/12/10 13:11:26;;;;;;;4.30;2.10;;;21.60;40.70;;;;;;5049116;28;20530;-56